createdAt,value
2023-04-08T00:00:22.949Z,102424.66
2023-04-08T00:02:49.588Z,102424.66
2023-04-08T00:05:16.172Z,102426.59
2023-04-08T00:07:42.861Z,102427.69
2023-04-08T00:10:09.671Z,102436.78
2023-04-08T00:12:36.244Z,102432.50
2023-04-08T00:15:02.807Z,102433.59
2023-04-08T00:17:29.336Z,102429.78
2023-04-08T00:19:56.644Z,102434.84
2023-04-08T00:22:23.391Z,102431.84
2023-04-08T00:24:50.047Z,102434.84
2023-04-08T00:27:16.619Z,102428.53
2023-04-08T00:29:43.179Z,102430.91
2023-04-08T00:32:09.778Z,102425.19
2023-04-08T00:34:37.229Z,102432.84
2023-04-08T00:37:03.797Z,102432.72
2023-04-08T00:39:30.372Z,102442.25
2023-04-08T00:41:57.625Z,102433.69
2023-04-08T00:44:24.189Z,102433.69
2023-04-08T00:46:50.888Z,102437.97
2023-04-08T00:49:17.626Z,102445.31
2023-04-08T00:51:44.189Z,102445.44
2023-04-08T00:54:10.890Z,102440.50
2023-04-08T00:56:37.801Z,102438.63
2023-04-08T00:59:05.278Z,102447.06
2023-04-08T01:01:51.118Z,102447.69
2023-04-08T01:04:26.416Z,102446.41
2023-04-08T01:07:03.822Z,102444.84
2023-04-08T01:09:35.721Z,102452.34
2023-04-08T01:12:06.688Z,102456.16
2023-04-08T01:14:38.951Z,102457.63
2023-04-08T01:17:06.427Z,102461.09
2023-04-08T01:19:40.016Z,102461.75
2023-04-08T01:22:29.243Z,102460.34
2023-04-08T01:25:02.815Z,102462.41
2023-04-08T01:27:32.114Z,102461.78
2023-04-08T01:30:00.507Z,102456.84
2023-04-08T01:32:28.953Z,102460.03
2023-04-08T01:34:58.126Z,102457.94
2023-04-08T01:37:26.633Z,102457.94
2023-04-08T01:39:55.166Z,102457.63
2023-04-08T01:42:24.859Z,102454.94
2023-04-08T01:44:55.509Z,102459.84
2023-04-08T01:47:23.949Z,102463.03
2023-04-08T01:49:52.725Z,102466.53
2023-04-08T01:52:21.123Z,102464.16
2023-04-08T01:54:47.815Z,102468.16
2023-04-08T01:57:22.679Z,102468.16
2023-04-08T01:59:52.925Z,102471.16
2023-04-08T02:02:22.937Z,102470.69
2023-04-08T02:04:49.754Z,102461.00
2023-04-08T02:07:17.880Z,102463.84
2023-04-08T02:09:44.437Z,102457.63
2023-04-08T02:12:11.820Z,102460.81
2023-04-08T02:14:38.526Z,102468.63
2023-04-08T02:17:11.496Z,102461.59
2023-04-08T02:19:57.079Z,102462.88
2023-04-08T02:22:43.472Z,102465.44
2023-04-08T02:25:14.213Z,102468.16
2023-04-08T02:27:41.721Z,102465.59
2023-04-08T02:30:11.624Z,102471.34
2023-04-08T02:32:39.292Z,102471.66
2023-04-08T02:35:06.908Z,102477.53
2023-04-08T02:37:33.799Z,102472.13
2023-04-08T02:40:00.693Z,102471.00
2023-04-08T02:42:27.332Z,102469.25
2023-04-08T02:44:54.526Z,102479.78
2023-04-08T02:47:21.134Z,102477.38
2023-04-08T02:49:47.666Z,102476.28
2023-04-08T02:52:14.226Z,102478.69
2023-04-08T02:54:41.041Z,102474.84
2023-04-08T02:57:07.613Z,102488.69
2023-04-08T02:59:34.161Z,102492.81
2023-04-08T03:02:00.868Z,102498.09
2023-04-08T03:04:27.540Z,102499.19
2023-04-08T03:06:54.077Z,102498.41
2023-04-08T03:09:20.918Z,102498.72
2023-04-08T03:11:52.681Z,102499.50
2023-04-08T03:14:19.236Z,102500.63
2023-04-08T03:16:45.803Z,102493.94
2023-04-08T03:19:12.375Z,102499.84
2023-04-08T03:21:38.967Z,102494.41
2023-04-08T03:24:05.896Z,102496.34
2023-04-08T03:26:32.460Z,102484.06
2023-04-08T03:28:59.012Z,102490.44
2023-04-08T03:31:26.321Z,102498.06
2023-04-08T03:33:52.871Z,102497.75
2023-04-08T03:36:19.469Z,102497.25
2023-04-08T03:38:46.179Z,102496.47
2023-04-08T03:41:12.754Z,102499.19
2023-04-08T03:43:39.376Z,102496.81
2023-04-08T03:46:06.096Z,102502.38
2023-04-08T03:48:32.712Z,102501.75
2023-04-08T03:50:59.329Z,102502.53
2023-04-08T03:53:28.025Z,102500.44
2023-04-08T03:55:55.349Z,102502.69
2023-04-08T03:58:21.895Z,102508.41
2023-04-08T04:00:48.454Z,102506.78
2023-04-08T04:03:15.143Z,102511.28
2023-04-08T04:05:41.832Z,102513.16
2023-04-08T04:08:09.505Z,102522.41
2023-04-08T04:10:36.186Z,102518.75
2023-04-08T04:13:02.732Z,102523.03
2023-04-08T04:15:29.309Z,102531.16
2023-04-08T04:17:55.922Z,102536.72
2023-04-08T04:20:22.521Z,102531.75
2023-04-08T04:22:49.086Z,102538.13
2023-04-08T04:25:15.633Z,102550.38
2023-04-08T04:27:42.163Z,102541.28
2023-04-08T04:30:09.660Z,102541.56
2023-04-08T04:32:36.476Z,102544.91
2023-04-08T04:35:03.245Z,102551.75
2023-04-08T04:37:29.767Z,102550.28
2023-04-08T04:39:56.404Z,102552.19
2023-04-08T04:42:22.955Z,102550.13
2023-04-08T04:44:49.475Z,102554.72
2023-04-08T04:47:16.487Z,102558.84
2023-04-08T04:49:43.259Z,102564.56
2023-04-08T04:52:09.847Z,102562.78
2023-04-08T04:54:36.349Z,102566.56
2023-04-08T04:57:02.957Z,102573.84
2023-04-08T04:59:29.515Z,102577.16
2023-04-08T05:01:57.792Z,102583.19
2023-04-08T05:04:25.889Z,102582.38
2023-04-08T05:06:52.380Z,102590.78
2023-04-08T05:09:19.049Z,102590.28
2023-04-08T05:11:45.539Z,102584.88
2023-04-08T05:14:12.434Z,102591.41
2023-04-08T05:16:39.272Z,102588.03
2023-04-08T05:19:05.961Z,102592.94
2023-04-08T05:21:32.733Z,102587.06
2023-04-08T05:23:59.290Z,102593.88
2023-04-08T05:26:26.397Z,102600.19
2023-04-08T05:28:53.001Z,102596.50
2023-04-08T05:31:20.234Z,102597.31
2023-04-08T05:33:47.719Z,102598.09
2023-04-08T05:36:14.576Z,102601.09
2023-04-08T05:38:43.232Z,102600.59
2023-04-08T05:41:10.520Z,102604.44
2023-04-08T05:43:37.197Z,102603.63
2023-04-08T05:46:09.108Z,102604.44
2023-04-08T05:48:36.222Z,102606.63
2023-04-08T05:51:04.569Z,102612.34
2023-04-08T05:53:31.462Z,102610.25
2023-04-08T05:55:57.991Z,102618.06
2023-04-08T05:58:24.524Z,102615.81
2023-04-08T06:00:51.074Z,102619.66
2023-04-08T06:03:19.815Z,102612.34
2023-04-08T06:05:47.245Z,102617.44
2023-04-08T06:08:13.810Z,102615.81
2023-04-08T06:10:40.489Z,102613.63
2023-04-08T06:13:07.267Z,102622.22
2023-04-08T06:15:33.825Z,102618.72
2023-04-08T06:18:00.507Z,102625.41
2023-04-08T06:20:27.370Z,102622.13
2023-04-08T06:22:54.055Z,102625.78
2023-04-08T06:25:20.678Z,102622.00
2023-04-08T06:27:48.544Z,102627.41
2023-04-08T06:30:16.285Z,102636.00
2023-04-08T06:32:42.848Z,102649.38
2023-04-08T06:35:09.538Z,102652.44
2023-04-08T06:37:38.671Z,102651.03
2023-04-08T06:40:06.741Z,102653.63
2023-04-08T06:42:33.377Z,102661.91
2023-04-08T06:44:59.912Z,102675.00
2023-04-08T06:47:26.514Z,102663.31
2023-04-08T06:49:54.383Z,102678.50
2023-04-08T06:52:21.219Z,102680.44
2023-04-08T06:54:48.105Z,102670.47
2023-04-08T06:57:14.958Z,102678.47
2023-04-08T06:59:41.493Z,102678.03
2023-04-08T07:02:08.292Z,102684.78
2023-04-08T07:04:34.881Z,102679.50
2023-04-08T07:07:01.500Z,102684.81
2023-04-08T07:09:28.449Z,102691.53
2023-04-08T07:11:56.886Z,102691.72
2023-04-08T07:14:23.406Z,102696.34
2023-04-08T07:16:49.946Z,102693.69
2023-04-08T07:19:16.485Z,102695.94
2023-04-08T07:21:43.048Z,102702.34
2023-04-08T07:24:09.585Z,102703.44
2023-04-08T07:26:36.084Z,102711.06
2023-04-08T07:29:02.636Z,102717.66
2023-04-08T07:31:29.384Z,102719.75
2023-04-08T07:33:56.442Z,102719.09
2023-04-08T07:36:23.012Z,102719.94
2023-04-08T07:38:49.866Z,102733.31
2023-04-08T07:41:16.909Z,102721.56
2023-04-08T07:43:43.560Z,102723.94
2023-04-08T07:46:10.493Z,102725.25
2023-04-08T07:48:37.121Z,102728.28
2023-04-08T07:51:08.068Z,102722.84
2023-04-08T07:53:37.232Z,102721.56
2023-04-08T07:56:04.310Z,102726.19
2023-04-08T07:58:32.108Z,102721.72
2023-04-08T08:00:59.568Z,102730.19
2023-04-08T08:03:26.537Z,102729.84
2023-04-08T08:05:53.347Z,102727.16
2023-04-08T08:08:19.893Z,102723.78
2023-04-08T08:10:46.515Z,102732.09
2023-04-08T08:13:17.098Z,102735.59
2023-04-08T08:15:43.734Z,102740.72
2023-04-08T08:18:12.982Z,102736.88
2023-04-08T08:20:39.876Z,102727.63
2023-04-08T08:23:06.471Z,102728.91
2023-04-08T08:25:33.229Z,102728.75
2023-04-08T08:27:59.867Z,102738.00
2023-04-08T08:30:27.092Z,102738.00
2023-04-08T08:32:54.254Z,102739.09
2023-04-08T08:35:20.936Z,102740.03
2023-04-08T08:37:47.595Z,102749.75
2023-04-08T08:40:14.313Z,102736.34
2023-04-08T08:42:45.394Z,102744.78
2023-04-08T08:45:12.018Z,102740.00
2023-04-08T08:47:38.726Z,102747.47
2023-04-08T08:50:07.079Z,102740.47
2023-04-08T08:52:33.761Z,102744.91
2023-04-08T08:55:01.423Z,102734.66
2023-04-08T08:57:29.159Z,102746.00
2023-04-08T08:59:57.272Z,102757.16
2023-04-08T09:02:28.101Z,102755.56
2023-04-08T09:05:00.223Z,102759.09
2023-04-08T09:07:29.050Z,102760.88
2023-04-08T09:09:57.262Z,102750.47
2023-04-08T09:12:25.200Z,102756.16
2023-04-08T09:14:52.072Z,102761.91
2023-04-08T09:17:46.627Z,102758.97
2023-04-08T09:20:15.074Z,102759.13
2023-04-08T09:22:54.040Z,102763.72
2023-04-08T09:25:26.426Z,102773.75
2023-04-08T09:27:53.993Z,102762.50
2023-04-08T09:30:23.218Z,102760.06
2023-04-08T09:32:51.757Z,102768.22
2023-04-08T09:35:19.476Z,102770.31
2023-04-08T09:37:46.733Z,102769.97
2023-04-08T09:40:18.826Z,102778.09
2023-04-08T09:42:50.122Z,102781.66
2023-04-08T09:45:18.355Z,102780.34
2023-04-08T09:47:58.320Z,102778.03
2023-04-08T09:50:32.619Z,102788.47
2023-04-08T09:53:09.025Z,102771.09
2023-04-08T09:55:37.462Z,102774.38
2023-04-08T09:58:16.336Z,102783.88
2023-04-08T10:00:50.649Z,102782.81
2023-04-08T10:03:30.077Z,102774.28
2023-04-08T10:05:58.668Z,102780.66
2023-04-08T10:08:26.071Z,102773.44
2023-04-08T10:10:54.402Z,102776.53
2023-04-08T10:13:27.759Z,102766.69
2023-04-08T10:16:22.976Z,102768.31
2023-04-08T10:18:55.837Z,102774.03
2023-04-08T10:21:51.040Z,102769.84
2023-04-08T10:24:19.091Z,102772.00
2023-04-08T10:26:46.092Z,102771.09
2023-04-08T10:29:18.767Z,102764.75
2023-04-08T10:31:47.066Z,102762.84
2023-04-08T10:34:18.297Z,102756.47
2023-04-08T10:36:45.941Z,102763.44
2023-04-08T10:39:14.009Z,102771.84
2023-04-08T10:41:44.651Z,102772.19
2023-04-08T10:44:22.932Z,102773.75
2023-04-08T10:46:51.484Z,102764.06
2023-04-08T10:49:18.783Z,102764.28
2023-04-08T10:51:46.655Z,102762.03
2023-04-08T10:54:16.923Z,102758.47
2023-04-08T10:56:46.092Z,102759.50
2023-04-08T10:59:16.551Z,102760.47
2023-04-08T11:01:45.300Z,102757.63
2023-04-08T11:04:14.844Z,102747.78
2023-04-08T11:06:44.210Z,102762.78
2023-04-08T11:09:11.151Z,102747.97
2023-04-08T11:11:39.129Z,102748.44
2023-04-08T11:14:07.183Z,102753.75
2023-04-08T11:16:39.234Z,102747.78
2023-04-08T11:19:08.801Z,102755.38
2023-04-08T11:21:36.650Z,102749.81
2023-04-08T11:24:16.940Z,102751.75
2023-04-08T11:26:43.678Z,102754.41
2023-04-08T11:29:14.481Z,102743.25
2023-04-08T11:31:44.095Z,102739.50
2023-04-08T11:34:11.032Z,102742.94
2023-04-08T11:36:49.257Z,102744.63
2023-04-08T11:39:16.174Z,102746.56
2023-04-08T11:41:42.826Z,102751.25
2023-04-08T11:44:09.539Z,102744.38
2023-04-08T11:46:36.602Z,102753.25
2023-04-08T11:49:10.059Z,102747.00
2023-04-08T11:51:57.763Z,102754.66
2023-04-08T11:54:30.260Z,102754.97
2023-04-08T11:56:59.975Z,102754.97
2023-04-08T11:59:29.029Z,102755.16
2023-04-08T12:01:56.379Z,102759.03
2023-04-08T12:04:30.787Z,102757.53
2023-04-08T12:07:04.323Z,102757.38
2023-04-08T12:09:31.135Z,102754.91
2023-04-08T12:11:58.053Z,102755.16
2023-04-08T12:14:27.732Z,102758.50
2023-04-08T12:16:55.037Z,102747.66
2023-04-08T12:19:21.752Z,102750.09
2023-04-08T12:21:48.368Z,102743.22
2023-04-08T12:24:15.036Z,102748.88
2023-04-08T12:26:41.690Z,102749.78
2023-04-08T12:29:11.690Z,102750.06
2023-04-08T12:31:38.301Z,102741.41
2023-04-08T12:36:56.967Z,102752.22
2023-04-08T12:39:23.598Z,102743.75
2023-04-08T12:41:50.681Z,102744.25
2023-04-08T12:44:23.377Z,102743.47
2023-04-08T12:46:59.167Z,102741.72
2023-04-08T12:49:26.396Z,102746.16
2023-04-08T12:51:53.887Z,102742.03
2023-04-08T12:54:21.732Z,102739.19
2023-04-08T12:56:48.946Z,102747.13
2023-04-08T12:59:16.076Z,102740.41
2023-04-08T13:01:52.046Z,102743.69
2023-04-08T13:04:19.946Z,102747.81
2023-04-08T13:06:46.449Z,102745.81
2023-04-08T13:09:15.549Z,102749.59
2023-04-08T13:11:43.519Z,102743.25
2023-04-08T13:14:13.801Z,102752.78
2023-04-08T13:17:48.383Z,102754.38
2023-04-08T13:20:18.449Z,102746.88
2023-04-08T13:22:45.051Z,102750.69
2023-04-08T13:25:11.851Z,102749.00
2023-04-08T13:27:38.470Z,102742.66
2023-04-08T13:30:05.619Z,102747.31
2023-04-08T13:32:32.249Z,102749.41
2023-04-08T13:34:59.080Z,102739.97
2023-04-08T13:37:50.346Z,102739.88
2023-04-08T13:40:32.250Z,102734.16
2023-04-08T13:42:59.150Z,102735.94
2023-04-08T13:45:25.897Z,102732.78
2023-04-08T13:47:52.641Z,102725.44
2023-04-08T13:50:22.175Z,102733.56
2023-04-08T13:52:48.778Z,102734.28
2023-04-08T13:55:16.828Z,102729.59
2023-04-08T13:57:46.911Z,102726.41
2023-04-08T14:00:13.940Z,102732.44
2023-04-08T14:02:40.585Z,102729.94
2023-04-08T14:05:07.581Z,102724.19
2023-04-08T14:18:51.329Z,102718.84
2023-04-08T14:21:18.784Z,102724.03
2023-04-08T14:23:45.320Z,102716.38
2023-04-08T14:26:14.415Z,102716.63
2023-04-08T14:28:41.297Z,102725.72
2023-04-08T14:31:08.022Z,102720.78
2023-04-08T14:33:34.694Z,102715.94
2023-04-08T14:36:07.861Z,102717.75
2023-04-08T14:38:56.588Z,102715.03
2023-04-08T14:41:23.524Z,102710.34
2023-04-08T14:44:23.413Z,102709.66
2023-04-08T14:50:06.773Z,102710.91
2023-04-08T14:55:40.933Z,102699.75
2023-04-08T14:58:07.649Z,102700.25
2023-04-08T15:00:37.764Z,102695.47
2023-04-08T15:03:09.030Z,102704.88
2023-04-08T15:08:48.090Z,102706.50
2023-04-08T15:11:14.736Z,102693.75
2023-04-08T15:13:41.350Z,102689.00
2023-04-08T15:16:08.060Z,102698.97
2023-04-08T15:18:34.814Z,102691.66
2023-04-08T15:21:01.631Z,102696.00
2023-04-08T15:23:31.114Z,102691.22
2023-04-08T15:25:59.581Z,102696.03
2023-04-08T15:28:27.388Z,102686.25
2023-04-08T15:30:54.495Z,102690.56
2023-04-08T15:33:21.110Z,102690.81
2023-04-08T15:35:48.471Z,102689.25
2023-04-08T15:38:16.126Z,102701.16
2023-04-08T15:40:43.079Z,102702.06
2023-04-08T15:43:11.247Z,102700.66
2023-04-08T15:45:44.070Z,102691.31
2023-04-08T15:48:11.862Z,102691.03
2023-04-08T15:50:38.729Z,102693.53
2023-04-08T15:53:05.812Z,102697.31
2023-04-08T15:55:37.781Z,102695.13
2023-04-08T15:58:04.443Z,102698.03
2023-04-08T16:00:31.492Z,102692.47
2023-04-08T16:02:58.275Z,102697.09
2023-04-08T16:05:25.284Z,102693.53
2023-04-08T16:07:52.024Z,102698.81
2023-04-08T16:10:18.794Z,102702.97
2023-04-08T16:12:46.288Z,102698.63
2023-04-08T16:15:12.913Z,102697.75
2023-04-08T16:17:39.716Z,102697.63
2023-04-08T16:20:06.986Z,102695.72
2023-04-08T16:22:41.756Z,102700.28
2023-04-08T16:25:08.573Z,102704.44
2023-04-08T16:27:37.020Z,102693.75
2023-04-08T16:30:04.254Z,102697.28
2023-04-08T16:32:31.013Z,102686.34
2023-04-08T16:34:57.669Z,102693.84
2023-04-08T16:37:24.354Z,102687.25
2023-04-08T16:39:51.169Z,102685.75
2023-04-08T16:42:18.327Z,102690.59
2023-04-08T16:44:44.875Z,102687.16
2023-04-08T16:47:11.424Z,102690.34
2023-04-08T16:49:38.099Z,102691.50
2023-04-08T16:52:04.775Z,102691.50
2023-04-08T16:54:31.534Z,102699.69
2023-04-08T16:56:58.200Z,102696.84
2023-04-08T16:59:24.847Z,102701.44
2023-04-08T17:01:51.664Z,102699.94
2023-04-08T17:04:18.312Z,102698.34
2023-04-08T17:06:45.284Z,102700.97
2023-04-08T17:09:12.068Z,102699.41
2023-04-08T17:11:38.739Z,102706.03
2023-04-08T17:14:05.665Z,102705.22
2023-04-08T17:16:32.268Z,102705.66
2023-04-08T17:18:58.816Z,102708.38
2023-04-08T17:21:26.178Z,102708.75
2023-04-08T17:23:53.073Z,102712.28
2023-04-08T17:26:20.303Z,102709.63
2023-04-08T17:28:46.959Z,102712.72
2023-04-08T17:31:13.489Z,102709.53
2023-04-08T17:33:40.031Z,102712.44
2023-04-08T17:36:07.256Z,102719.44
2023-04-08T17:38:35.650Z,102710.97
2023-04-08T17:41:02.255Z,102714.09
2023-04-08T17:43:29.870Z,102700.25
2023-04-08T17:46:01.361Z,102711.94
2023-04-08T17:48:33.665Z,102709.03
2023-04-08T17:51:02.993Z,102706.56
2023-04-08T17:53:30.114Z,102705.66
2023-04-08T17:55:56.674Z,102710.31
2023-04-08T17:58:26.414Z,102709.50
2023-04-08T18:00:53.095Z,102711.34
2023-04-08T18:03:20.013Z,102705.34
2023-04-08T18:05:46.768Z,102708.66
2023-04-08T18:08:13.314Z,102716.72
2023-04-08T18:10:54.221Z,102709.09
2023-04-08T18:13:21.009Z,102707.53
2023-04-08T18:15:47.590Z,102710.59
2023-04-08T18:18:19.497Z,102713.69
2023-04-08T18:20:46.209Z,102710.84
2023-04-08T18:23:12.814Z,102716.16
2023-04-08T18:25:41.047Z,102717.31
2023-04-08T18:28:07.676Z,102720.84
2023-04-08T18:30:34.230Z,102718.09
2023-04-08T18:33:02.053Z,102721.53
2023-04-08T18:35:28.778Z,102726.53
2023-04-08T18:37:56.477Z,102726.75
2023-04-08T18:40:23.057Z,102728.34
2023-04-08T18:42:49.674Z,102729.34
2023-04-08T18:45:16.424Z,102724.22
2023-04-08T18:47:43.014Z,102738.31
2023-04-08T18:50:09.861Z,102737.50
2023-04-08T18:52:37.495Z,102734.78
2023-04-08T18:55:05.511Z,102739.44
2023-04-08T18:57:32.190Z,102737.38
2023-04-08T18:59:58.802Z,102749.91
2023-04-08T19:02:25.542Z,102748.66
2023-04-08T19:04:52.242Z,102745.94
2023-04-08T19:07:18.820Z,102744.31
2023-04-08T19:09:45.530Z,102742.75
2023-04-08T19:12:12.212Z,102740.81
2023-04-08T19:14:39.649Z,102750.56
2023-04-08T19:17:06.361Z,102748.97
2023-04-08T19:19:33.018Z,102748.84
2023-04-08T19:22:02.696Z,102746.81
2023-04-08T19:24:29.291Z,102762.03
2023-04-08T19:26:56.111Z,102760.44
2023-04-08T19:29:23.441Z,102754.53
2023-04-08T19:31:50.210Z,102759.91
2023-04-08T19:34:16.753Z,102759.75
2023-04-08T19:36:43.255Z,102762.03
2023-04-08T19:39:09.886Z,102760.31
2023-04-08T19:41:36.415Z,102761.00
2023-04-08T19:44:03.145Z,102760.41
2023-04-08T19:46:29.720Z,102765.75
2023-04-08T19:48:59.041Z,102765.19
2023-04-08T19:51:26.128Z,102769.56
2023-04-08T19:53:53.288Z,102768.31
2023-04-08T19:56:20.253Z,102765.50
2023-04-08T19:58:48.182Z,102771.47
2023-04-08T20:01:15.297Z,102775.31
2023-04-08T20:03:42.227Z,102769.31
2023-04-08T20:06:09.097Z,102773.03
2023-04-08T20:08:35.937Z,102777.09
2023-04-08T20:11:04.582Z,102784.00
2023-04-08T20:13:31.422Z,102780.34
2023-04-08T20:15:58.058Z,102784.84
2023-04-08T20:18:24.713Z,102783.47
2023-04-08T20:20:52.575Z,102786.72
2023-04-08T20:23:19.247Z,102787.25
2023-04-08T20:25:45.843Z,102794.84
2023-04-08T20:28:12.807Z,102791.84
2023-04-08T20:30:40.648Z,102794.63
2023-04-08T20:33:07.234Z,102796.25
2023-04-08T20:35:33.778Z,102792.94
2023-04-08T20:38:00.381Z,102792.47
2023-04-08T20:40:26.965Z,102793.94
2023-04-08T20:42:53.760Z,102801.63
2023-04-08T20:45:20.301Z,102805.78
2023-04-08T20:47:46.953Z,102799.03
2023-04-08T20:50:13.842Z,102804.22
2023-04-08T20:52:40.444Z,102798.66
2023-04-08T20:55:07.776Z,102804.59
2023-04-08T20:57:34.349Z,102806.06
2023-04-08T21:00:01.196Z,102804.44
2023-04-08T21:02:27.959Z,102798.06
2023-04-08T21:04:54.686Z,102801.13
2023-04-08T21:07:21.302Z,102803.06
2023-04-08T21:09:48.574Z,102803.25
2023-04-08T21:12:15.209Z,102796.06
2023-04-08T21:14:42.161Z,102807.59
2023-04-08T21:17:08.962Z,102808.88
2023-04-08T21:19:36.693Z,102803.78
2023-04-08T21:22:03.362Z,102802.81
2023-04-08T21:24:30.877Z,102807.34
2023-04-08T21:29:56.110Z,102803.97
2023-04-08T21:32:47.590Z,102803.50
2023-04-08T21:35:12.405Z,102801.91
2023-04-08T21:40:23.394Z,102804.47
2023-04-08T21:42:50.059Z,102799.69
2023-04-08T21:45:17.048Z,102806.22
2023-04-08T21:47:43.965Z,102798.75
2023-04-08T21:50:11.745Z,102798.56
2023-04-08T21:52:41.569Z,102803.53
2023-04-08T21:55:10.162Z,102804.19
2023-04-08T21:57:36.919Z,102808.81
2023-04-08T22:00:08.312Z,102813.13
2023-04-08T22:02:40.818Z,102799.06
2023-04-08T22:05:09.035Z,102801.31
2023-04-08T22:07:35.643Z,102809.13
2023-04-08T22:10:02.655Z,102798.75
2023-04-08T22:12:30.584Z,102796.22
2023-04-08T22:14:57.600Z,102802.91
2023-04-08T22:17:24.278Z,102802.56
2023-04-08T22:19:51.110Z,102804.97
2023-04-08T22:22:17.914Z,102800.00
2023-04-08T22:24:44.660Z,102808.31
2023-04-08T22:27:11.352Z,102805.25
2023-04-08T22:29:38.024Z,102801.44
2023-04-08T22:32:04.871Z,102809.72
2023-04-08T22:34:32.000Z,102810.19
2023-04-08T22:36:58.655Z,102812.91
2023-04-08T22:39:26.719Z,102804.78
2023-04-08T22:41:53.674Z,102806.84
2023-04-08T22:44:20.530Z,102801.06
2023-04-08T22:49:29.835Z,102797.06
2023-04-08T22:51:56.497Z,102799.78
2023-04-08T22:54:24.455Z,102802.19
2023-04-08T22:56:51.456Z,102796.09
2023-04-08T22:59:18.168Z,102797.22
2023-04-08T23:01:45.308Z,102801.06
2023-04-08T23:04:12.100Z,102803.94
2023-04-08T23:06:38.858Z,102804.41
2023-04-08T23:09:05.558Z,102801.03
2023-04-08T23:11:32.353Z,102803.44
2023-04-08T23:13:58.999Z,102803.44
2023-04-08T23:16:25.984Z,102806.63
2023-04-08T23:18:52.914Z,102806.28
2023-04-08T23:21:20.988Z,102804.69
2023-04-08T23:23:47.762Z,102802.13
2023-04-08T23:26:19.477Z,102797.50
2023-04-08T23:28:46.157Z,102799.75
2023-04-08T23:31:13.130Z,102806.44
2023-04-08T23:33:40.058Z,102801.78
2023-04-08T23:36:08.361Z,102802.63
2023-04-08T23:38:37.051Z,102799.91
2023-04-08T23:41:04.903Z,102797.19
2023-04-08T23:43:32.073Z,102795.56
2023-04-08T23:45:58.766Z,102792.84
2023-04-08T23:48:25.982Z,102792.84
2023-04-08T23:50:56.763Z,102787.09
2023-04-08T23:53:26.546Z,102782.44
2023-04-08T23:55:54.508Z,102781.31
2023-04-08T23:58:21.544Z,102778.59
